createdAt,value
2023-02-13T00:01:26.913Z,-7.23
2023-02-13T00:04:00.678Z,-7.19
2023-02-13T00:06:29.567Z,-7.19
2023-02-13T00:08:57.773Z,-7.26
2023-02-13T00:11:29.807Z,-7.32
2023-02-13T00:13:59.053Z,-7.37
2023-02-13T00:16:28.262Z,-7.40
2023-02-13T00:19:03.088Z,-7.35
2023-02-13T00:21:36.343Z,-7.31
2023-02-13T00:24:06.408Z,-7.33
2023-02-13T00:26:34.880Z,-7.38
2023-02-13T00:29:07.219Z,-7.44
2023-02-13T00:31:37.266Z,-7.47
2023-02-13T00:34:05.707Z,-7.42
2023-02-13T00:36:35.969Z,-7.39
2023-02-13T00:39:04.305Z,-7.41
2023-02-13T00:41:33.184Z,-7.46
2023-02-13T00:44:01.629Z,-7.46
2023-02-13T00:46:31.959Z,-7.45
2023-02-13T00:49:00.159Z,-7.39
2023-02-13T00:51:29.408Z,-7.36
2023-02-13T00:53:59.953Z,-7.38
2023-02-13T00:56:28.423Z,-7.47
2023-02-13T00:59:00.689Z,-7.53
2023-02-13T01:01:29.769Z,-7.59
2023-02-13T01:03:58.439Z,-7.67
2023-02-13T01:06:27.330Z,-7.67
2023-02-13T01:08:55.734Z,-7.67
2023-02-13T01:11:25.629Z,-7.68
2023-02-13T01:13:53.936Z,-7.76
2023-02-13T01:16:23.276Z,-7.79
2023-02-13T01:18:51.750Z,-7.79
2023-02-13T01:21:21.384Z,-7.72
2023-02-13T01:23:52.233Z,-7.68
2023-02-13T01:26:24.174Z,-7.68
2023-02-13T01:28:57.968Z,-7.72
2023-02-13T01:31:26.757Z,-7.75
2023-02-13T01:33:58.455Z,-7.72
2023-02-13T01:36:30.145Z,-7.65
2023-02-13T01:38:59.824Z,-7.62
2023-02-13T01:41:28.843Z,-7.61
2023-02-13T01:44:00.065Z,-7.69
2023-02-13T01:46:34.143Z,-7.75
2023-02-13T01:49:23.593Z,-7.81
2023-02-13T01:51:54.531Z,-7.92
2023-02-13T01:54:31.406Z,-7.96
2023-02-13T01:57:18.580Z,-8.00
2023-02-13T01:59:54.576Z,-8.09
2023-02-13T02:02:23.700Z,-8.19
2023-02-13T02:04:52.394Z,-8.26
2023-02-13T02:07:27.703Z,-8.25
2023-02-13T02:10:06.153Z,-8.20
2023-02-13T02:12:42.780Z,-8.19
2023-02-13T02:15:16.826Z,-8.27
2023-02-13T02:18:02.195Z,-8.31
2023-02-13T02:20:54.553Z,-8.33
2023-02-13T02:23:48.626Z,-8.32
2023-02-13T02:26:32.886Z,-8.29
2023-02-13T02:29:19.381Z,-8.31
2023-02-13T02:32:03.059Z,-8.41
2023-02-13T02:35:00.853Z,-8.48
2023-02-13T02:37:45.446Z,-8.56
2023-02-13T02:40:35.434Z,-8.60
2023-02-13T02:43:08.034Z,-8.58
2023-02-13T02:45:52.747Z,-8.56
2023-02-13T02:48:50.496Z,-8.59
2023-02-13T02:51:24.113Z,-8.60
2023-02-13T02:54:31.277Z,-8.63
2023-02-13T02:57:04.264Z,-8.67
2023-02-13T02:59:51.648Z,-8.72
2023-02-13T03:02:39.029Z,-8.77
2023-02-13T03:05:34.636Z,-8.84
2023-02-13T03:08:03.389Z,-8.90
2023-02-13T03:10:52.907Z,-8.97
2023-02-13T03:13:40.133Z,-9.05
2023-02-13T03:16:31.269Z,-9.08
2023-02-13T03:19:17.908Z,-9.04
2023-02-13T03:22:17.500Z,-8.99
2023-02-13T03:25:00.919Z,-8.93
2023-02-13T03:28:10.416Z,-8.90
2023-02-13T03:30:57.663Z,-8.94
2023-02-13T03:34:14.351Z,-8.93
2023-02-13T03:37:19.646Z,-8.96
2023-02-13T03:40:10.493Z,-8.98
2023-02-13T03:42:43.286Z,-8.99
2023-02-13T03:45:53.962Z,-8.99
2023-02-13T03:48:51.931Z,-8.99
2023-02-13T03:51:37.815Z,-9.00
2023-02-13T03:54:08.596Z,-9.03
2023-02-13T03:56:56.642Z,-9.06
2023-02-13T03:59:29.598Z,-9.08
2023-02-13T04:02:17.458Z,-9.11
2023-02-13T04:04:51.448Z,-9.12
2023-02-13T04:07:33.022Z,-9.11
2023-02-13T04:10:04.377Z,-9.09
2023-02-13T04:12:57.564Z,-9.10
2023-02-13T04:15:50.130Z,-9.13
2023-02-13T04:18:25.146Z,-9.14
2023-02-13T04:20:53.506Z,-9.15
2023-02-13T04:23:21.770Z,-9.16
2023-02-13T04:25:51.491Z,-9.16
2023-02-13T04:28:21.089Z,-9.20
2023-02-13T04:30:50.941Z,-9.24
2023-02-13T04:33:19.538Z,-9.25
2023-02-13T04:35:48.570Z,-9.28
2023-02-13T04:38:17.961Z,-9.30
2023-02-13T04:40:46.196Z,-9.32
2023-02-13T04:43:14.407Z,-9.31
2023-02-13T04:45:42.964Z,-9.31
2023-02-13T04:48:11.258Z,-9.30
2023-02-13T04:50:39.763Z,-9.28
2023-02-13T04:53:08.085Z,-9.26
2023-02-13T04:55:37.408Z,-9.22
2023-02-13T04:58:06.135Z,-9.20
2023-02-13T05:00:34.551Z,-9.21
2023-02-13T05:03:08.907Z,-9.26
2023-02-13T05:05:38.261Z,-9.29
2023-02-13T05:08:07.782Z,-9.27
2023-02-13T05:10:37.128Z,-9.22
2023-02-13T05:13:06.650Z,-9.16
2023-02-13T05:15:36.249Z,-9.09
2023-02-13T05:18:05.110Z,-9.03
2023-02-13T05:20:33.354Z,-8.98
2023-02-13T05:23:20.736Z,-8.90
2023-02-13T05:25:49.169Z,-8.82
2023-02-13T05:28:37.977Z,-8.76
2023-02-13T05:31:13.264Z,-8.70
2023-02-13T05:33:42.087Z,-8.65
2023-02-13T05:36:11.129Z,-8.62
2023-02-13T05:38:41.517Z,-8.60
2023-02-13T05:41:10.402Z,-8.59
2023-02-13T05:43:39.595Z,-8.56
2023-02-13T05:46:09.549Z,-8.49
2023-02-13T05:48:40.925Z,-8.41
2023-02-13T05:51:09.439Z,-8.33
2023-02-13T05:53:37.912Z,-8.23
2023-02-13T05:56:07.212Z,-8.11
2023-02-13T05:58:35.465Z,-8.00
2023-02-13T06:01:04.127Z,-7.89
2023-02-13T06:03:32.615Z,-7.78
2023-02-13T06:06:04.297Z,-7.66
2023-02-13T06:08:32.567Z,-7.54
2023-02-13T06:11:03.555Z,-7.42
2023-02-13T06:13:34.830Z,-7.29
2023-02-13T06:16:03.386Z,-7.19
2023-02-13T06:18:32.030Z,-7.11
2023-02-13T06:21:00.461Z,-7.01
2023-02-13T06:23:30.478Z,-6.92
2023-02-13T06:26:05.641Z,-6.83
2023-02-13T06:28:35.003Z,-6.77
2023-02-13T06:31:04.037Z,-6.70
2023-02-13T06:33:32.433Z,-6.64
2023-02-13T06:36:00.604Z,-6.56
2023-02-13T06:38:32.415Z,-6.45
2023-02-13T06:41:02.316Z,-6.29
2023-02-13T06:43:30.868Z,-6.12
2023-02-13T06:45:59.335Z,-5.97
2023-02-13T06:48:27.678Z,-5.80
2023-02-13T06:50:56.571Z,-5.64
2023-02-13T06:53:25.772Z,-5.46
2023-02-13T06:55:55.979Z,-5.28
2023-02-13T06:58:25.103Z,-5.06
2023-02-13T07:00:57.241Z,-4.83
2023-02-13T07:03:26.002Z,-4.65
2023-02-13T07:05:54.504Z,-4.50
2023-02-13T07:08:23.043Z,-4.40
2023-02-13T07:10:57.488Z,-4.32
2023-02-13T07:13:26.421Z,-4.25
2023-02-13T07:16:20.257Z,-4.16
2023-02-13T07:18:49.245Z,-4.10
2023-02-13T07:21:17.618Z,-4.03
2023-02-13T07:23:46.500Z,-3.94
2023-02-13T07:26:16.397Z,-3.81
2023-02-13T07:28:44.867Z,-3.68
2023-02-13T07:31:13.505Z,-3.59
2023-02-13T07:33:42.681Z,-3.59
2023-02-13T07:36:10.865Z,-3.68
2023-02-13T07:38:39.174Z,-3.75
2023-02-13T07:41:07.370Z,-3.68
2023-02-13T07:43:35.900Z,-3.52
2023-02-13T07:46:04.390Z,-3.34
2023-02-13T07:48:32.597Z,-3.23
2023-02-13T07:51:02.540Z,-3.15
2023-02-13T07:53:31.492Z,-3.11
2023-02-13T07:55:59.948Z,-3.11
2023-02-13T07:58:28.537Z,-3.04
2023-02-13T08:00:56.888Z,-2.89
2023-02-13T08:03:26.020Z,-2.70
2023-02-13T08:05:55.491Z,-2.50
2023-02-13T08:08:23.888Z,-2.35
2023-02-13T08:11:14.837Z,-2.28
2023-02-13T08:13:43.798Z,-2.27
2023-02-13T08:16:14.464Z,-2.25
2023-02-13T08:18:42.696Z,-2.28
2023-02-13T08:21:10.863Z,-2.35
2023-02-13T08:23:39.181Z,-2.38
2023-02-13T08:26:11.308Z,-2.39
2023-02-13T08:28:39.934Z,-2.37
2023-02-13T08:31:12.091Z,-2.34
2023-02-13T08:33:41.896Z,-2.28
2023-02-13T08:36:10.286Z,-2.23
2023-02-13T08:41:14.674Z,-2.10
2023-02-13T08:43:43.784Z,-2.00
2023-02-13T08:46:14.641Z,-1.90
2023-02-13T08:48:43.072Z,-1.86
2023-02-13T08:51:12.564Z,-1.87
2023-02-13T08:53:41.170Z,-1.88
2023-02-13T08:57:49.228Z,-1.67
2023-02-13T09:00:17.926Z,-1.56
2023-02-13T09:02:46.842Z,-1.44
2023-02-13T09:05:15.968Z,-1.36
2023-02-13T09:07:45.494Z,-1.31
2023-02-13T09:10:14.423Z,-1.24
2023-02-13T09:12:43.194Z,-1.18
2023-02-13T09:15:11.590Z,-1.13
2023-02-13T09:17:40.330Z,-1.02
2023-02-13T09:20:10.226Z,-0.89
2023-02-13T09:22:42.188Z,-0.76
2023-02-13T09:25:13.110Z,-0.68
2023-02-13T09:27:42.059Z,-0.58
2023-02-13T09:30:11.140Z,-0.49
2023-02-13T09:32:39.664Z,-0.42
2023-02-13T09:35:08.182Z,-0.37
2023-02-13T09:37:36.990Z,-0.34
2023-02-13T09:40:05.912Z,-0.28
2023-02-13T09:42:37.052Z,-0.23
2023-02-13T09:45:05.888Z,-0.18
2023-02-13T09:47:36.922Z,-0.17
2023-02-13T09:50:25.023Z,-0.20
2023-02-13T09:52:55.982Z,-0.26
2023-02-13T09:55:30.319Z,-0.25
2023-02-13T09:58:04.058Z,-0.14
2023-02-13T10:00:41.126Z,-0.06
2023-02-13T10:03:29.579Z,0.03
2023-02-13T10:06:31.026Z,0.09
2023-02-13T10:09:06.900Z,0.12
2023-02-13T10:12:01.829Z,0.11
2023-02-13T10:14:49.616Z,0.20
2023-02-13T10:17:20.669Z,0.38
2023-02-13T10:19:58.262Z,0.50
2023-02-13T10:22:30.852Z,0.55
2023-02-13T10:25:08.976Z,0.53
2023-02-13T10:27:52.306Z,0.49
2023-02-13T10:30:24.845Z,0.57
2023-02-13T10:33:19.999Z,0.64
2023-02-13T10:36:03.753Z,0.68
2023-02-13T10:38:33.838Z,0.72
2023-02-13T10:41:23.297Z,0.73
2023-02-13T10:44:20.743Z,0.71
2023-02-13T10:47:08.527Z,0.71
2023-02-13T10:50:07.304Z,0.65
2023-02-13T10:53:29.110Z,0.62
2023-02-13T10:56:54.932Z,0.58
2023-02-13T10:59:58.776Z,0.54
2023-02-13T11:02:35.561Z,0.46
2023-02-13T11:05:18.320Z,0.43
2023-02-13T11:07:51.255Z,0.42
2023-02-13T11:10:26.803Z,0.43
2023-02-13T11:13:19.337Z,0.45
2023-02-13T11:16:14.103Z,0.46
2023-02-13T11:19:18.210Z,0.45
2023-02-13T11:21:47.404Z,0.47
2023-02-13T11:24:21.411Z,0.51
2023-02-13T11:26:57.926Z,0.57
2023-02-13T11:29:57.992Z,0.61
2023-02-13T11:32:56.776Z,0.64
2023-02-13T11:35:33.301Z,0.65
2023-02-13T11:38:10.974Z,0.64
2023-02-13T11:40:39.532Z,0.67
2023-02-13T11:43:07.999Z,0.71
2023-02-13T11:45:37.425Z,0.75
2023-02-13T11:48:09.697Z,0.79
2023-02-13T11:50:52.238Z,0.84
2023-02-13T11:53:25.811Z,0.88
2023-02-13T11:56:08.999Z,0.88
2023-02-13T11:58:37.905Z,0.86
2023-02-13T12:01:21.944Z,0.85
2023-02-13T12:04:04.075Z,0.85
2023-02-13T12:06:39.922Z,0.87
2023-02-13T12:09:13.475Z,0.88
2023-02-13T12:11:50.044Z,0.85
2023-02-13T12:14:21.400Z,0.84
2023-02-13T12:16:54.454Z,0.87
2023-02-13T12:19:30.669Z,0.87
2023-02-13T12:22:30.029Z,0.87
2023-02-13T12:25:14.449Z,0.89
2023-02-13T12:27:56.205Z,0.94
2023-02-13T12:30:42.990Z,0.99
2023-02-13T12:33:26.840Z,1.05
2023-02-13T12:36:26.435Z,1.09
2023-02-13T12:39:37.441Z,1.14
2023-02-13T12:42:22.879Z,1.19
2023-02-13T12:45:14.500Z,1.23
2023-02-13T12:48:02.194Z,1.27
2023-02-13T12:50:57.666Z,1.27
2023-02-13T12:53:54.273Z,1.25
2023-02-13T12:56:39.270Z,1.20
2023-02-13T12:59:49.821Z,1.17
2023-02-13T13:02:24.371Z,1.14
2023-02-13T13:05:13.972Z,1.13
2023-02-13T13:08:03.807Z,1.12
2023-02-13T13:10:51.490Z,1.07
2023-02-13T13:14:04.699Z,0.97
2023-02-13T13:17:27.376Z,0.87
2023-02-13T13:20:02.441Z,0.74
2023-02-13T13:22:34.778Z,0.61
2023-02-13T13:25:53.234Z,0.51
2023-02-13T13:28:35.382Z,0.39
2023-02-13T13:31:03.900Z,0.36
2023-02-13T13:34:02.247Z,0.36
2023-02-13T13:36:47.600Z,0.37
2023-02-13T13:39:58.365Z,0.36
2023-02-13T13:42:41.058Z,0.38
2023-02-13T13:45:15.915Z,0.38
2023-02-13T13:47:45.437Z,0.39
2023-02-13T13:50:42.047Z,0.40
2023-02-13T13:53:19.965Z,0.42
2023-02-13T13:55:53.002Z,0.43
2023-02-13T13:58:25.930Z,0.44
2023-02-13T14:01:23.644Z,0.46
2023-02-13T14:03:51.976Z,0.46
2023-02-13T14:06:30.683Z,0.47
2023-02-13T14:09:01.295Z,0.46
2023-02-13T14:11:31.451Z,0.45
2023-02-13T14:14:00.913Z,0.46
2023-02-13T14:19:54.706Z,0.46
2023-02-13T14:22:28.308Z,0.44
2023-02-13T14:25:05.518Z,0.41
2023-02-13T14:28:03.182Z,0.39
2023-02-13T14:30:37.226Z,0.35
2023-02-13T14:33:07.210Z,0.31
2023-02-13T14:35:38.104Z,0.29
2023-02-13T14:38:47.561Z,0.25
2023-02-13T14:45:17.059Z,0.19
2023-02-13T14:47:53.648Z,0.16
2023-02-13T14:50:45.992Z,0.13
2023-02-13T14:53:24.632Z,0.09
2023-02-13T14:56:16.577Z,0.07
2023-02-13T14:59:10.284Z,0.04
2023-02-13T15:02:02.746Z,0.03
2023-02-13T15:04:44.496Z,0.00
2023-02-13T15:07:22.147Z,-0.01
2023-02-13T15:10:00.461Z,-0.03
2023-02-13T15:12:34.229Z,-0.04
2023-02-13T15:15:03.829Z,-0.06
2023-02-13T15:17:41.352Z,-0.08
2023-02-13T15:20:12.751Z,-0.10
2023-02-13T15:22:46.742Z,-0.12
2023-02-13T15:25:54.729Z,-0.14
2023-02-13T15:28:25.476Z,-0.17
2023-02-13T15:31:27.084Z,-0.20
2023-02-13T15:33:58.236Z,-0.23
2023-02-13T15:36:27.827Z,-0.25
2023-02-13T15:39:01.224Z,-0.28
2023-02-13T15:41:33.618Z,-0.29
2023-02-13T15:44:02.593Z,-0.31
2023-02-13T15:46:36.386Z,-0.33
2023-02-13T15:49:19.940Z,-0.35
2023-02-13T15:51:48.318Z,-0.36
2023-02-13T15:54:28.180Z,-0.37
2023-02-13T15:56:58.584Z,-0.39
2023-02-13T15:59:32.125Z,-0.40
2023-02-13T16:02:07.305Z,-0.40
2023-02-13T16:04:36.149Z,-0.41
2023-02-13T16:07:24.306Z,-0.42
2023-02-13T16:10:38.742Z,-0.40
2023-02-13T16:13:07.706Z,-0.39
2023-02-13T16:15:42.239Z,-0.39
2023-02-13T16:18:29.018Z,-0.38
2023-02-13T16:20:57.868Z,-0.38
2023-02-13T16:23:27.938Z,-0.37
2023-02-13T16:26:00.647Z,-0.37
2023-02-13T16:28:29.196Z,-0.37
2023-02-13T16:31:03.022Z,-0.38
2023-02-13T16:34:05.806Z,-0.39
2023-02-13T16:36:36.225Z,-0.41
2023-02-13T16:39:19.182Z,-0.41
2023-02-13T16:42:13.828Z,-0.42
2023-02-13T16:44:42.733Z,-0.42
2023-02-13T16:47:21.220Z,-0.43
2023-02-13T16:49:55.218Z,-0.43
2023-02-13T16:52:26.204Z,-0.43
2023-02-13T16:54:59.518Z,-0.43
2023-02-13T16:57:53.189Z,-0.43
2023-02-13T17:00:25.548Z,-0.45
2023-02-13T17:02:54.269Z,-0.44
2023-02-13T17:05:27.478Z,-0.44
2023-02-13T17:07:58.344Z,-0.46
2023-02-13T17:10:31.264Z,-0.46
2023-02-13T17:13:25.333Z,-0.48
2023-02-13T17:15:55.322Z,-0.51
2023-02-13T17:18:25.104Z,-0.53
2023-02-13T17:20:53.640Z,-0.55
2023-02-13T17:23:48.324Z,-0.57
2023-02-13T17:26:44.211Z,-0.59
2023-02-13T17:29:12.638Z,-0.59
2023-02-13T17:31:41.072Z,-0.59
2023-02-13T17:34:11.749Z,-0.58
2023-02-13T17:36:42.891Z,-0.56
2023-02-13T17:39:11.221Z,-0.54
2023-02-13T17:42:32.226Z,-0.53
2023-02-13T17:45:00.629Z,-0.52
2023-02-13T17:47:30.732Z,-0.50
2023-02-13T17:50:09.314Z,-0.48
2023-02-13T17:53:09.728Z,-0.46
2023-02-13T17:55:39.139Z,-0.44
2023-02-13T17:58:07.923Z,-0.43
2023-02-13T18:00:36.374Z,-0.42
2023-02-13T18:03:05.350Z,-0.41
2023-02-13T18:05:35.278Z,-0.41
2023-02-13T18:08:04.025Z,-0.40
2023-02-13T18:10:34.450Z,-0.38
2023-02-13T18:16:26.118Z,-0.35
2023-02-13T18:18:56.476Z,-0.34
2023-02-13T18:21:30.756Z,-0.34
2023-02-13T18:24:48.563Z,-0.31
2023-02-13T18:27:17.569Z,-0.31
2023-02-13T18:30:14.306Z,-0.30
2023-02-13T18:32:43.885Z,-0.30
2023-02-13T18:35:12.336Z,-0.28
2023-02-13T18:37:43.745Z,-0.27
2023-02-13T18:40:15.307Z,-0.26
2023-02-13T18:42:44.704Z,-0.25
2023-02-13T18:45:13.137Z,-0.24
2023-02-13T18:47:45.911Z,-0.24
2023-02-13T18:50:15.844Z,-0.23
2023-02-13T18:52:44.580Z,-0.22
2023-02-13T18:55:14.614Z,-0.21
2023-02-13T18:57:46.548Z,-0.19
2023-02-13T19:00:20.276Z,-0.18
2023-02-13T19:02:49.326Z,-0.18
2023-02-13T19:05:20.915Z,-0.18
2023-02-13T19:07:55.736Z,-0.18
2023-02-13T19:10:24.462Z,-0.19
2023-02-13T19:12:53.033Z,-0.19
2023-02-13T19:15:24.782Z,-0.19
2023-02-13T19:18:19.676Z,-0.20
2023-02-13T19:20:50.081Z,-0.20
2023-02-13T19:23:20.468Z,-0.20
2023-02-13T19:25:48.982Z,-0.20
2023-02-13T19:28:18.920Z,-0.20
2023-02-13T19:30:47.320Z,-0.21
2023-02-13T19:33:17.727Z,-0.21
2023-02-13T19:36:22.310Z,-0.22
2023-02-13T19:38:55.625Z,-0.23
2023-02-13T19:41:24.312Z,-0.24
2023-02-13T19:43:58.711Z,-0.24
2023-02-13T19:46:59.324Z,-0.24
2023-02-13T19:49:33.207Z,-0.24
2023-02-13T19:52:27.278Z,-0.25
2023-02-13T19:55:21.397Z,-0.26
2023-02-13T19:57:50.233Z,-0.26
2023-02-13T20:00:26.504Z,-0.26
2023-02-13T20:03:01.850Z,-0.27
2023-02-13T20:05:39.311Z,-0.27
2023-02-13T20:08:12.265Z,-0.27
2023-02-13T20:10:45.500Z,-0.27
2023-02-13T20:13:16.519Z,-0.27
2023-02-13T20:15:45.657Z,-0.27
2023-02-13T20:18:14.128Z,-0.27
2023-02-13T20:20:44.586Z,-0.26
2023-02-13T20:23:13.119Z,-0.27
2023-02-13T20:25:41.765Z,-0.28
2023-02-13T20:28:11.621Z,-0.27
2023-02-13T20:30:43.869Z,-0.27
2023-02-13T20:33:13.634Z,-0.27
2023-02-13T20:35:45.073Z,-0.28
2023-02-13T20:38:13.794Z,-0.28
2023-02-13T20:40:42.832Z,-0.28
2023-02-13T20:43:32.953Z,-0.28
2023-02-13T20:46:01.582Z,-0.27
2023-02-13T20:48:59.774Z,-0.27
2023-02-13T20:51:28.442Z,-0.27
2023-02-13T20:53:57.797Z,-0.27
2023-02-13T20:56:26.984Z,-0.27
2023-02-13T20:58:56.828Z,-0.26
2023-02-13T21:01:27.954Z,-0.26
2023-02-13T21:03:56.936Z,-0.25
2023-02-13T21:06:31.712Z,-0.25
2023-02-13T21:09:26.015Z,-0.24
2023-02-13T21:11:59.978Z,-0.24
2023-02-13T21:16:07.254Z,-0.21
2023-02-13T21:18:38.064Z,-0.22
2023-02-13T21:21:07.416Z,-0.22
2023-02-13T21:23:37.523Z,-0.21
2023-02-13T21:26:11.293Z,-0.22
2023-02-13T21:28:40.615Z,-0.22
2023-02-13T21:31:14.482Z,-0.23
2023-02-13T21:33:42.783Z,-0.22
2023-02-13T21:36:12.176Z,-0.22
2023-02-13T21:38:42.233Z,-0.23
2023-02-13T21:41:16.320Z,-0.23
2023-02-13T21:43:48.011Z,-0.23
2023-02-13T21:46:27.090Z,-0.23
2023-02-13T21:48:58.827Z,-0.23
2023-02-13T21:51:28.632Z,-0.21
2023-02-13T21:53:57.212Z,-0.21
2023-02-13T21:56:35.305Z,-0.21
2023-02-13T21:59:07.769Z,-0.21
2023-02-13T22:01:47.330Z,-0.21
2023-02-13T22:04:16.405Z,-0.21
2023-02-13T22:06:47.782Z,-0.20
2023-02-13T22:09:16.814Z,-0.19
2023-02-13T22:11:48.308Z,-0.19
2023-02-13T22:14:17.755Z,-0.18
2023-02-13T22:16:46.648Z,-0.18
2023-02-13T22:19:16.736Z,-0.18
2023-02-13T22:21:45.495Z,-0.18
2023-02-13T22:24:13.928Z,-0.17
2023-02-13T22:26:45.532Z,-0.17
2023-02-13T22:29:15.302Z,-0.16
2023-02-13T22:31:43.856Z,-0.14
2023-02-13T22:34:13.516Z,-0.14
2023-02-13T22:36:43.087Z,-0.15
2023-02-13T22:39:11.533Z,-0.14
2023-02-13T22:41:41.259Z,-0.13
2023-02-13T22:44:09.831Z,-0.13
2023-02-13T22:46:38.161Z,-0.12
2023-02-13T22:49:06.393Z,-0.12
2023-02-13T22:51:36.110Z,-0.11
2023-02-13T22:54:04.717Z,-0.11
2023-02-13T22:56:33.627Z,-0.11
2023-02-13T22:59:02.393Z,-0.12
2023-02-13T23:01:31.161Z,-0.11
2023-02-13T23:03:59.766Z,-0.10
2023-02-13T23:06:29.508Z,-0.10
2023-02-13T23:08:57.680Z,-0.10
2023-02-13T23:11:46.159Z,-0.11
2023-02-13T23:14:15.000Z,-0.10
2023-02-13T23:17:02.251Z,-0.10
2023-02-13T23:19:30.812Z,-0.10
2023-02-13T23:22:00.084Z,-0.10
2023-02-13T23:24:29.238Z,-0.10
2023-02-13T23:26:58.250Z,-0.09
2023-02-13T23:29:26.923Z,-0.09
2023-02-13T23:31:55.915Z,-0.09
2023-02-13T23:34:24.376Z,-0.09
2023-02-13T23:36:53.541Z,-0.08
2023-02-13T23:39:21.967Z,-0.08
2023-02-13T23:41:50.229Z,-0.08
2023-02-13T23:44:18.788Z,-0.07
2023-02-13T23:46:47.352Z,-0.07
2023-02-13T23:49:16.181Z,-0.07
2023-02-13T23:51:45.083Z,-0.08
2023-02-13T23:54:17.911Z,-0.08
2023-02-13T23:56:46.453Z,-0.08
2023-02-13T23:59:16.085Z,-0.07
